METAR Data
IDs: Format: Raw Decoded Include TAF

Data at: 1241 UTC 21 Jan 2020

KSYN 211235Z AUTO 21010KT 10SM CLR M16/M18 A3045 RMK AO2 T11621182
KSYN 211215Z AUTO 21008KT 10SM CLR M17/M19 A3045 RMK AO2 T11681189
KSYN 211156Z AUTO 20004KT 10SM CLR M19/M21 A3045 RMK AO2 T11881208 11175 21217
KSYN 211155Z AUTO 19005KT 10SM CLR M19/M21 A3045 RMK AO2 T11891211 11175 21217
KSYN 211136Z AUTO 19006KT 10SM CLR M19/M20 A3046 RMK AO2 T11861205
KSYN 211135Z AUTO 19006KT 10SM CLR M19/M21 A3046 RMK AO2 T11881207
KSYN 211115Z AUTO 19006KT 10SM CLR M18/M20 A3046 RMK AO2 T11761196
KSYN 211055Z AUTO 19007KT 10SM CLR M18/M20 A3046 RMK AO2 T11761196
KSYN 211036Z AUTO 19007KT 10SM CLR M18/M20 A3047 RMK AO2 T11771198
KSYN 211035Z AUTO 19008KT 10SM CLR M18/M20 A3047 RMK AO2 T11771198
KSYN 211015Z AUTO 18008KT 10SM CLR M18/M20 A3047 RMK AO2 T11811200
KSYN 210956Z AUTO 20005KT 10SM CLR M20/M22 A3049 RMK AO2 T11961217
KSYN 210955Z AUTO 20005KT 10SM CLR M19/M22 A3049 RMK AO2 T11951217
KSYN 210935Z AUTO 20005KT 10SM CLR M18/M20 A3050 RMK AO2 T11791199
KSYN 210915Z AUTO 20004KT 10SM CLR M18/M20 A3050 RMK AO2 T11831202
KSYN 210855Z AUTO 19005KT 10SM CLR M19/M21 A3050 RMK AO2 T11951214
KSYN 210835Z AUTO 18004KT 10SM CLR M19/M21 A3051 RMK AO2 T11941215
KSYN 210816Z AUTO 19004KT 10SM CLR M20/M22 A3052 RMK AO2 T11991221
KSYN 210815Z AUTO 19004KT 10SM CLR M20/M22 A3052 RMK AO2 T11991221
KSYN 210755Z AUTO 19005KT 10SM CLR M19/M21 A3053 RMK AO2 T11871207
KSYN 210735Z AUTO 20003KT 10SM CLR M19/M21 A3054 RMK AO2 T11931213
KSYN 210716Z AUTO 20003KT 10SM CLR M19/M21 A3055 RMK AO2 T11951215
KSYN 210715Z AUTO 20004KT 10SM CLR M19/M21 A3055 RMK AO2 T11951215
KSYN 210656Z AUTO 19004KT 10SM CLR M19/M22 A3055 RMK AO2 T11951216
KSYN 210655Z AUTO 19004KT 10SM CLR M19/M21 A3055 RMK AO2 T11951215
KSYN 210635Z AUTO 20003KT 10SM CLR M20/M22 A3056 RMK AO2 T12011224
KSYN 210615Z AUTO 20004KT 10SM CLR M21/M23 A3057 RMK AO2 T12101230
KSYN 210556Z AUTO 20005KT 10SM CLR M20/M23 A3057 RMK AO2 T12021226 11152 21234 411061234
KSYN 210555Z AUTO 21005KT 10SM CLR M20/M22 A3057 RMK AO2 T11991222 11152 21234 411061234
KSYN 210535Z AUTO 21004KT 10SM CLR M20/M22 A3058 RMK AO2 T12021222
KSYN 210515Z AUTO 20004KT 10SM CLR M21/M23 A3058 RMK AO2 T12081230
KSYN 210455Z AUTO 20005KT 10SM CLR M22/M24 A3058 RMK AO2 T12161238
KSYN 210435Z AUTO 19005KT 10SM CLR M22/M24 A3059 RMK AO2 T12221245
KSYN 210415Z AUTO 22003KT 10SM CLR M23/M25 A3060 RMK AO2 T12271247
KSYN 210355Z AUTO 21005KT 10SM CLR M22/M24 A3060 RMK AO2 T12181238
KSYN 210336Z AUTO 19003KT 10SM CLR M21/M24 A3060 RMK AO2 T12151238
KSYN 210335Z AUTO 18004KT 10SM CLR M21/M24 A3060 RMK AO2 T12151239
KSYN 210316Z AUTO 20003KT 10SM CLR M20/M22 A3061 RMK AO2 T11991216
KSYN 210315Z AUTO 20003KT 10SM CLR M20/M22 A3061 RMK AO2 T12011219
KSYN 210256Z AUTO 00000KT 10SM CLR M19/M21 A3061 RMK AO2 T11951213
KSYN 210255Z AUTO 00000KT 10SM CLR M20/M21 A3061 RMK AO2 T11961213
KSYN 210236Z AUTO 21003KT 10SM CLR M19/M21 A3062 RMK AO2 T11941214
KSYN 210235Z AUTO 00000KT 10SM CLR M19/M21 A3062 RMK AO2 T11931212
KSYN 210216Z AUTO 22004KT 10SM CLR M20/M22 A3061 RMK AO2 T12001220
KSYN 210215Z AUTO 22004KT 10SM CLR M20/M22 A3061 RMK AO2 T12001221
KSYN 210155Z AUTO 19004KT 10SM CLR M20/M21 A3061 RMK AO2 T11971214
KSYN 210135Z AUTO 20004KT 10SM CLR M20/M22 A3062 RMK AO2 T11981218
KSYN 210116Z AUTO 19003KT 10SM CLR M20/M22 A3063 RMK AO2 T12021218
KSYN 210115Z AUTO 19003KT 10SM CLR M20/M22 A3063 RMK AO2 T12041223
KSYN 210055Z AUTO 19004KT 10SM CLR M17/M19 A3063 RMK AO2 T11691188
KSYN 210036Z AUTO 20003KT 10SM CLR M17/M18 A3063 RMK AO2 T11671185
KSYN 210035Z AUTO 21003KT 10SM CLR M17/M18 A3063 RMK AO2 T11671185
KSYN 210016Z AUTO 27003KT 10SM CLR M18/M20 A3063 RMK AO2 T11811203
KSYN 210015Z AUTO 28004KT 10SM CLR M18/M20 A3063 RMK AO2 T11781201
KSYN 202356Z AUTO 20004KT 10SM CLR M15/M17 A3062 RMK AO2 T11461169 11106 21146
KSYN 202355Z AUTO 19004KT 10SM CLR M15/M17 A3062 RMK AO2 T11461169 11106 21146
KSYN 202336Z AUTO 20003KT 10SM CLR M14/M17 A3062 RMK AO2 T11431167
KSYN 202335Z AUTO 20003KT 10SM CLR M14/M17 A3062 RMK AO2 T11431167
KSYN 202316Z AUTO 19003KT 10SM CLR M14/M16 A3062 RMK AO2 T11361163
KSYN 202315Z AUTO 19004KT 10SM CLR M14/M16 A3062 RMK AO2 T11361163
KSYN 202255Z AUTO 20003KT 10SM CLR M13/M16 A3062 RMK AO2 T11301160
KSYN 202235Z AUTO 17005KT 10SM CLR M13/M16 A3062 RMK AO2 T11261156
KSYN 202215Z AUTO 21004KT 10SM CLR M12/M15 A3063 RMK AO2 T11191155
KSYN 202156Z AUTO 18003KT 10SM CLR M11/M14 A3063 RMK AO2 T11061145
KSYN 202155Z AUTO 18003KT 10SM CLR M11/M14 A3063 RMK AO2 T11061145
KSYN 202136Z AUTO 00000KT 10SM CLR M11/M15 A3063 RMK AO2 T11101149
KSYN 202135Z AUTO 00000KT 10SM CLR M11/M15 A3063 RMK AO2 T11101149
KSYN 202115Z AUTO 00000KT 10SM CLR M11/M15 A3063 RMK AO2 T11111150
KSYN 202055Z AUTO 00000KT 10SM CLR M11/M15 A3065 RMK AO2 T11141151
KSYN 202035Z AUTO 22004KT 10SM CLR M12/M15 A3065 RMK AO2 T11171152
KSYN 202016Z AUTO 00000KT 10SM CLR M11/M15 A3063 RMK AO2 T11151150
KSYN 202015Z AUTO 00000KT 10SM CLR M11/M15 A3063 RMK AO2 T11151150
KSYN 201955Z AUTO 17003KT 10SM CLR M12/M15 A3065 RMK AO2 T11171155
KSYN 201936Z AUTO 00000KT 10SM CLR M11/M15 A3065 RMK AO2 T11141153
KSYN 201935Z AUTO 00000KT 10SM CLR M11/M15 A3065 RMK AO2 T11141153
KSYN 201916Z AUTO 00000KT 10SM CLR M12/M16 A3066 RMK AO2 T11201157
KSYN 201915Z AUTO 00000KT 10SM CLR M12/M16 A3066 RMK AO2 T11201157
KSYN 201855Z AUTO 00000KT 10SM CLR M12/M16 A3067 RMK AO2 T11211158